This is the latest recevied weather packets stored in our database for station/object W8RD. If no packets are shown the sender has not sent any weather packets the latest 10 day(s).
| Time | Temp. | Humidity | Pressure | Rain* | Wind** | Luminosity | Snow |
|---|---|---|---|---|---|---|---|
| 1777738010 | 29.44° C | 74% | 1012.7 hPa | 0 mm | - | 197 W/m² | - |
| 1777736183 | 28.89° C | 77% | 1012.6 hPa | 0 mm | - | 152 W/m² | - |
| 1777735577 | 28.33° C | 77% | 1012.9 hPa | 0 mm | - | 150 W/m² | - |
| 1777734978 | 28.89° C | 75% | 1012.9 hPa | 0 mm | - | 176 W/m² | - |
| 1777734373 | 28.33° C | 77% | 1012.9 hPa | 0 mm | - | 186 W/m² | - |
| 1777733771 | 28.33° C | 76% | 1012.6 hPa | 0 mm | - | 130 W/m² | - |
| 1777733169 | 27.78° C | 77% | 1012.2 hPa | 0 mm | - | 84 W/m² | - |
| 1777732568 | 27.22° C | 79% | 1012.1 hPa | 0 mm | - | 80 W/m² | - |
| 1777731963 | 27.78° C | 79% | 1012.3 hPa | 0 mm | - | 84 W/m² | - |
| 1777731362 | 27.22° C | 80% | 1012.4 hPa | 0 mm | - | 148 W/m² | - |
| 1777730759 | 27.22° C | 80% | 1012.2 hPa | 0 mm | - | 154 W/m² | - |
| 1777730156 | 27.22° C | 80% | 1012.5 hPa | 0 mm | - | 148 W/m² | - |
| 1777729555 | 27.22° C | 80% | 1012.4 hPa | 0 mm | - | 137 W/m² | - |
| 1777728955 | 27.22° C | 80% | 1012.2 hPa | 0 mm | - | 124 W/m² | - |
| 1777728354 | 26.67° C | 81% | 1011.9 hPa | 0 mm | - | 120 W/m² | - |
| 1777727754 | 26.67° C | 79% | 1011.8 hPa | 0 mm | - | 117 W/m² | - |
| 1777727154 | 26.67° C | 81% | 1011.6 hPa | 0 mm | - | 116 W/m² | - |
| 1777726554 | 26.67° C | 80% | 1011.8 hPa | 0 mm | - | 82 W/m² | - |
| 1777725954 | 26.11° C | 80% | 1011.6 hPa | 0 mm | - | 50 W/m² | - |
| 1777725349 | 25.56° C | 81% | 1011.2 hPa | 0 mm | - | 48 W/m² | - |
| 1777724748 | 25.56° C | 82% | 1011.1 hPa | 0 mm | - | 53 W/m² | - |
| 1777724143 | 24.44° C | 84% | 1011.1 hPa | 0 mm | - | 43 W/m² | - |
| 1777723542 | 24.44° C | 86% | 1011 hPa | 0 mm | - | 31 W/m² | - |
| 1777722336 | 23.33° C | 89% | 1011.1 hPa | 0 mm | - | 29 W/m² | - |
| 1777721730 | 22.78° C | 91% | 1010.8 hPa | 0 mm | - | 23 W/m² | - |
* Rain latest hour (hover to see other rain measurements)
** Current wind speed in m/s (hover to see current wind gust speed)